createdAt,value
2022-07-27T00:01:40.694Z,21.55
2022-07-27T00:04:17.156Z,21.33
2022-07-27T00:06:44.517Z,20.99
2022-07-27T00:09:11.900Z,20.93
2022-07-27T00:11:38.832Z,20.93
2022-07-27T00:14:05.578Z,20.95
2022-07-27T00:16:32.609Z,20.96
2022-07-27T00:18:59.305Z,21.05
2022-07-27T00:21:26.794Z,21.16
2022-07-27T00:23:54.513Z,21.17
2022-07-27T00:26:21.568Z,20.98
2022-07-27T00:28:49.235Z,20.93
2022-07-27T00:31:16.646Z,20.85
2022-07-27T00:33:43.339Z,20.83
2022-07-27T00:36:10.293Z,20.93
2022-07-27T00:38:36.944Z,20.97
2022-07-27T00:41:03.663Z,20.92
2022-07-27T00:43:30.477Z,20.95
2022-07-27T00:45:57.224Z,20.87
2022-07-27T00:48:24.379Z,20.86
2022-07-27T00:50:53.479Z,20.92
2022-07-27T00:53:20.429Z,21.01
2022-07-27T00:55:47.108Z,21.03
2022-07-27T00:58:14.337Z,20.94
2022-07-27T01:00:40.977Z,20.95
2022-07-27T01:03:09.341Z,20.98
2022-07-27T01:05:42.571Z,20.98
2022-07-27T01:08:12.744Z,20.87
2022-07-27T01:10:41.358Z,20.74
2022-07-27T01:13:13.077Z,20.72
2022-07-27T01:15:40.925Z,20.74
2022-07-27T01:18:27.028Z,20.75
2022-07-27T01:20:54.584Z,20.83
2022-07-27T01:23:22.660Z,21.00
2022-07-27T01:25:49.415Z,21.05
2022-07-27T01:28:16.256Z,21.11
2022-07-27T01:30:42.948Z,21.13
2022-07-27T01:33:10.625Z,21.11
2022-07-27T01:35:39.735Z,21.17
2022-07-27T01:38:09.305Z,21.09
2022-07-27T01:40:36.986Z,21.02
2022-07-27T01:43:06.826Z,20.99
2022-07-27T01:45:33.543Z,21.01
2022-07-27T01:48:00.379Z,21.07
2022-07-27T01:50:27.336Z,21.05
2022-07-27T01:52:53.996Z,20.98
2022-07-27T01:55:20.683Z,21.08
2022-07-27T01:57:47.348Z,21.12
2022-07-27T02:00:14.280Z,21.15
2022-07-27T02:02:41.236Z,21.32
2022-07-27T02:05:12.079Z,21.42
2022-07-27T02:07:40.362Z,21.58
2022-07-27T02:10:07.549Z,21.74
2022-07-27T02:12:37.071Z,21.83
2022-07-27T02:15:15.052Z,21.93
2022-07-27T02:17:43.268Z,21.89
2022-07-27T02:20:11.072Z,22.00
2022-07-27T02:22:37.948Z,22.04
2022-07-27T02:25:06.235Z,22.10
2022-07-27T02:27:33.099Z,22.06
2022-07-27T02:29:59.735Z,22.16
2022-07-27T02:32:26.517Z,22.16
2022-07-27T02:34:53.295Z,22.17
2022-07-27T02:37:20.070Z,22.20
2022-07-27T02:39:46.769Z,22.10
2022-07-27T02:42:13.527Z,22.08
2022-07-27T02:44:40.476Z,22.02
2022-07-27T02:47:07.323Z,22.00
2022-07-27T02:49:34.009Z,21.98
2022-07-27T02:52:00.823Z,21.85
2022-07-27T02:54:27.853Z,21.79
2022-07-27T02:56:56.029Z,21.64
2022-07-27T02:59:23.382Z,21.62
2022-07-27T03:01:50.428Z,21.60
2022-07-27T03:04:18.626Z,21.59
2022-07-27T03:06:45.617Z,21.61
2022-07-27T03:09:12.409Z,21.58
2022-07-27T03:11:39.445Z,21.35
2022-07-27T03:14:06.254Z,21.44
2022-07-27T03:16:32.921Z,21.47
2022-07-27T03:18:59.728Z,21.59
2022-07-27T03:21:26.570Z,21.49
2022-07-27T03:23:53.398Z,21.39
2022-07-27T03:26:20.064Z,21.35
2022-07-27T03:28:46.693Z,21.37
2022-07-27T03:31:13.453Z,21.32
2022-07-27T03:33:40.236Z,21.13
2022-07-27T03:36:07.405Z,21.07
2022-07-27T03:38:34.375Z,20.98
2022-07-27T03:41:01.055Z,20.99
2022-07-27T03:43:27.763Z,20.91
2022-07-27T03:45:54.473Z,21.00
2022-07-27T03:48:21.198Z,21.10
2022-07-27T03:50:47.807Z,21.34
2022-07-27T03:53:14.918Z,21.53
2022-07-27T03:55:41.540Z,21.79
2022-07-27T03:58:08.142Z,21.87
2022-07-27T04:00:34.885Z,22.06
2022-07-27T04:03:01.722Z,22.16
2022-07-27T04:05:29.420Z,22.19
2022-07-27T04:07:56.781Z,22.14
2022-07-27T04:10:25.549Z,22.09
2022-07-27T04:12:57.552Z,22.16
2022-07-27T04:15:25.319Z,22.33
2022-07-27T04:17:55.079Z,22.15
2022-07-27T04:20:24.992Z,22.19
2022-07-27T04:22:51.712Z,22.40
2022-07-27T04:25:18.380Z,22.53
2022-07-27T04:27:44.957Z,22.66
2022-07-27T04:30:12.046Z,22.85
2022-07-27T04:32:39.224Z,23.08
2022-07-27T04:35:07.585Z,23.89
2022-07-27T04:37:35.418Z,24.27
2022-07-27T04:40:02.987Z,24.65
2022-07-27T04:42:30.086Z,25.30
2022-07-27T04:44:57.057Z,25.31
2022-07-27T04:47:23.753Z,24.69
2022-07-27T04:49:50.420Z,24.28
2022-07-27T04:52:17.780Z,23.92
2022-07-27T04:54:45.699Z,23.67
2022-07-27T04:57:12.330Z,23.96
2022-07-27T04:59:38.935Z,24.77
2022-07-27T05:02:05.779Z,25.83
2022-07-27T05:04:32.517Z,26.19
2022-07-27T05:06:59.214Z,26.25
2022-07-27T05:09:26.054Z,26.57
2022-07-27T05:11:53.270Z,26.76
2022-07-27T05:14:21.548Z,26.82
2022-07-27T05:16:48.765Z,27.25
2022-07-27T05:19:15.665Z,27.04
2022-07-27T05:21:43.137Z,26.87
2022-07-27T05:24:10.215Z,26.84
2022-07-27T05:26:37.764Z,26.74
2022-07-27T05:29:04.587Z,27.14
2022-07-27T05:31:31.432Z,27.10
2022-07-27T05:33:58.657Z,27.20
2022-07-27T05:36:25.726Z,27.06
2022-07-27T05:38:52.395Z,26.51
2022-07-27T05:41:26.465Z,26.09
2022-07-27T05:43:57.030Z,25.18
2022-07-27T05:46:23.715Z,25.31
2022-07-27T05:48:50.398Z,24.76
2022-07-27T05:51:17.483Z,24.52
2022-07-27T05:53:44.142Z,24.57
2022-07-27T05:56:11.446Z,24.72
2022-07-27T05:58:38.153Z,24.99
2022-07-27T06:01:04.821Z,25.09
2022-07-27T06:03:31.808Z,25.54
2022-07-27T06:06:16.973Z,25.98
2022-07-27T06:08:44.407Z,26.21
2022-07-27T06:11:11.125Z,26.60
2022-07-27T06:13:41.955Z,26.85
2022-07-27T06:16:09.904Z,27.13
2022-07-27T06:18:36.620Z,26.72
2022-07-27T06:21:03.447Z,26.79
2022-07-27T06:23:30.618Z,27.01
2022-07-27T06:25:57.663Z,27.16
2022-07-27T06:28:24.331Z,27.28
2022-07-27T06:30:51.061Z,26.77
2022-07-27T06:33:17.675Z,26.87
2022-07-27T06:35:44.287Z,26.86
2022-07-27T06:38:12.347Z,26.79
2022-07-27T06:40:40.103Z,26.71
2022-07-27T06:43:06.861Z,26.81
2022-07-27T06:45:33.531Z,26.95
2022-07-27T06:48:00.147Z,26.95
2022-07-27T06:50:27.073Z,26.57
2022-07-27T06:52:53.758Z,26.76
2022-07-27T06:55:20.373Z,26.56
2022-07-27T06:57:46.998Z,26.56
2022-07-27T07:00:14.538Z,26.93
2022-07-27T07:02:55.377Z,27.41
2022-07-27T07:05:23.276Z,27.43
2022-07-27T07:07:50.258Z,27.37
2022-07-27T07:10:17.054Z,27.43
2022-07-27T07:12:43.758Z,27.57
2022-07-27T07:15:11.057Z,27.73
2022-07-27T07:17:37.717Z,27.73
2022-07-27T07:20:06.931Z,28.04
2022-07-27T07:22:34.402Z,28.18
2022-07-27T07:25:03.075Z,28.17
2022-07-27T07:27:30.034Z,28.30
2022-07-27T07:29:57.992Z,28.34
2022-07-27T07:32:28.975Z,27.82
2022-07-27T07:34:59.733Z,27.54
2022-07-27T07:37:33.476Z,27.46
2022-07-27T07:40:18.870Z,27.20
2022-07-27T07:43:00.269Z,27.36
2022-07-27T07:45:28.380Z,27.69
2022-07-27T07:47:55.527Z,28.27
2022-07-27T07:50:23.296Z,28.38
2022-07-27T07:52:54.050Z,28.50
2022-07-27T07:55:26.532Z,28.88
2022-07-27T07:57:53.605Z,28.86
2022-07-27T08:00:21.831Z,28.36
2022-07-27T08:02:51.397Z,28.81
2022-07-27T08:05:18.403Z,28.94
2022-07-27T08:07:45.852Z,28.91
2022-07-27T08:10:15.076Z,28.79
2022-07-27T08:12:44.954Z,28.44
2022-07-27T08:15:13.740Z,28.43
2022-07-27T08:17:40.858Z,28.51
2022-07-27T08:20:08.974Z,28.45
2022-07-27T08:22:35.735Z,28.37
2022-07-27T08:25:03.343Z,28.94
2022-07-27T08:27:30.086Z,29.56
2022-07-27T08:30:08.502Z,29.82
2022-07-27T08:32:55.037Z,30.28
2022-07-27T08:35:22.355Z,30.27
2022-07-27T08:37:49.345Z,30.08
2022-07-27T08:43:05.088Z,30.12
2022-07-27T08:45:32.563Z,30.60
2022-07-27T08:47:59.337Z,30.78
2022-07-27T08:50:30.826Z,30.92
2022-07-27T08:53:07.421Z,31.19
2022-07-27T08:55:39.045Z,30.89
2022-07-27T08:58:07.353Z,30.91
2022-07-27T09:00:36.184Z,30.98
2022-07-27T09:03:03.321Z,31.04
2022-07-27T09:05:36.766Z,30.98
2022-07-27T09:08:24.697Z,30.68
2022-07-27T09:10:54.584Z,30.36
2022-07-27T09:13:30.307Z,30.21
2022-07-27T09:16:19.760Z,30.50
2022-07-27T09:18:48.449Z,30.67
2022-07-27T09:21:17.806Z,30.87
2022-07-27T09:23:48.257Z,31.03
2022-07-27T09:26:31.646Z,31.24
2022-07-27T09:29:19.979Z,30.90
2022-07-27T09:31:49.386Z,30.78
2022-07-27T09:34:34.351Z,31.03
2022-07-27T09:37:06.411Z,31.40
2022-07-27T09:39:33.296Z,31.49
2022-07-27T09:42:02.822Z,31.44
2022-07-27T09:44:43.968Z,31.55
2022-07-27T09:47:26.851Z,31.80
2022-07-27T09:50:16.554Z,31.59
2022-07-27T09:52:43.739Z,31.72
2022-07-27T09:55:10.679Z,32.02
2022-07-27T09:57:58.179Z,32.37
2022-07-27T10:00:26.370Z,32.59
2022-07-27T10:02:54.005Z,32.69
2022-07-27T10:05:22.899Z,32.33
2022-07-27T10:07:51.573Z,32.20
2022-07-27T10:10:18.263Z,32.34
2022-07-27T10:12:50.537Z,32.53
2022-07-27T10:15:20.669Z,32.28
2022-07-27T10:17:51.628Z,32.37
2022-07-27T10:20:18.723Z,32.56
2022-07-27T10:23:07.523Z,32.54
2022-07-27T10:25:38.085Z,32.60
2022-07-27T10:28:13.330Z,32.46
2022-07-27T10:30:40.146Z,32.26
2022-07-27T10:33:37.974Z,32.70
2022-07-27T10:36:05.349Z,33.05
2022-07-27T10:38:52.273Z,33.04
2022-07-27T10:41:24.907Z,32.80
2022-07-27T10:44:17.792Z,32.68
2022-07-27T10:46:46.815Z,32.55
2022-07-27T10:49:26.235Z,32.08
2022-07-27T10:51:53.990Z,31.91
2022-07-27T10:54:38.263Z,32.19
2022-07-27T10:57:09.171Z,32.04
2022-07-27T11:00:08.520Z,32.40
2022-07-27T11:02:39.623Z,32.26
2022-07-27T11:05:07.023Z,32.35
2022-07-27T11:07:44.398Z,32.39
2022-07-27T11:10:13.047Z,32.57
2022-07-27T11:12:41.098Z,32.39
2022-07-27T11:15:07.927Z,32.61
2022-07-27T11:17:59.579Z,32.69
2022-07-27T11:20:25.926Z,32.71
2022-07-27T11:23:47.787Z,32.91
2022-07-27T11:25:41.017Z,32.94
2022-07-27T11:28:07.714Z,32.79
2022-07-27T11:30:34.510Z,32.99
2022-07-27T11:33:04.028Z,33.15
2022-07-27T11:35:30.763Z,33.41
2022-07-27T11:38:02.198Z,33.56
2022-07-27T11:43:38.899Z,33.82
2022-07-27T11:46:23.479Z,34.02
2022-07-27T11:49:17.472Z,33.83
2022-07-27T11:51:46.312Z,33.50
2022-07-27T11:54:19.698Z,33.38
2022-07-27T11:56:49.463Z,33.41
2022-07-27T11:59:30.063Z,33.16
2022-07-27T12:01:59.702Z,33.39
2022-07-27T12:04:30.416Z,33.39
2022-07-27T12:07:05.875Z,34.00
2022-07-27T12:09:38.674Z,34.02
2022-07-27T12:12:34.842Z,33.96
2022-07-27T12:15:44.303Z,34.19
2022-07-27T12:18:02.611Z,34.07
2022-07-27T12:20:34.292Z,33.85
2022-07-27T12:23:08.690Z,33.85
2022-07-27T12:25:36.583Z,34.11
2022-07-27T12:28:15.536Z,33.85
2022-07-27T12:30:52.088Z,34.16
2022-07-27T12:33:24.857Z,34.38
2022-07-27T12:35:51.550Z,34.35
2022-07-27T12:38:18.718Z,34.31
2022-07-27T12:40:46.543Z,34.21
2022-07-27T12:43:19.706Z,34.34
2022-07-27T12:45:48.191Z,34.32
2022-07-27T12:48:24.430Z,34.09
2022-07-27T12:51:05.374Z,34.16
2022-07-27T12:53:34.800Z,34.17
2022-07-27T12:56:05.625Z,34.23
2022-07-27T12:58:32.838Z,34.33
2022-07-27T13:00:59.676Z,34.20
2022-07-27T13:03:26.989Z,34.25
2022-07-27T13:05:53.636Z,34.23
2022-07-27T13:08:20.321Z,34.28
2022-07-27T13:10:48.467Z,34.39
2022-07-27T13:13:15.182Z,34.42
2022-07-27T13:15:41.858Z,34.33
2022-07-27T13:18:08.625Z,34.37
2022-07-27T13:20:35.982Z,34.46
2022-07-27T13:23:02.700Z,34.36
2022-07-27T13:25:29.361Z,34.54
2022-07-27T13:27:56.126Z,35.02
2022-07-27T13:30:24.524Z,35.43
2022-07-27T13:32:51.248Z,35.43
2022-07-27T13:35:17.996Z,35.29
2022-07-27T13:37:45.113Z,34.88
2022-07-27T13:40:12.090Z,34.46
2022-07-27T13:42:38.925Z,34.27
2022-07-27T13:45:11.406Z,34.38
2022-07-27T13:47:42.511Z,34.05
2022-07-27T13:50:18.277Z,33.74
2022-07-27T13:52:48.386Z,33.72
2022-07-27T13:55:16.598Z,33.67
2022-07-27T13:57:44.126Z,33.64
2022-07-27T14:00:11.928Z,33.60
2022-07-27T14:02:39.855Z,33.74
2022-07-27T14:05:09.347Z,33.58
2022-07-27T14:07:39.514Z,33.34
2022-07-27T14:10:25.473Z,33.19
2022-07-27T14:12:56.833Z,33.01
2022-07-27T14:15:25.341Z,32.92
2022-07-27T14:17:51.971Z,32.90
2022-07-27T14:20:18.712Z,32.89
2022-07-27T14:22:45.391Z,32.71
2022-07-27T14:25:12.367Z,32.51
2022-07-27T14:27:39.081Z,32.36
2022-07-27T14:30:09.250Z,32.24
2022-07-27T14:32:36.405Z,32.23
2022-07-27T14:35:03.925Z,32.11
2022-07-27T14:37:30.712Z,31.99
2022-07-27T14:39:57.653Z,31.38
2022-07-27T14:42:25.150Z,30.90
2022-07-27T14:44:52.885Z,30.64
2022-07-27T14:47:19.659Z,30.20
2022-07-27T14:49:46.612Z,29.89
2022-07-27T14:52:13.658Z,29.81
2022-07-27T14:54:45.278Z,29.66
2022-07-27T14:57:12.690Z,29.51
2022-07-27T14:59:39.665Z,29.43
2022-07-27T15:02:07.422Z,29.48
2022-07-27T15:04:34.296Z,29.71
2022-07-27T15:07:02.022Z,29.92
2022-07-27T15:09:30.397Z,29.94
2022-07-27T15:11:58.946Z,29.80
2022-07-27T15:14:26.144Z,29.49
2022-07-27T15:16:53.747Z,29.54
2022-07-27T15:19:20.611Z,29.50
2022-07-27T15:21:47.296Z,29.63
2022-07-27T15:24:14.074Z,29.45
2022-07-27T15:26:40.786Z,29.53
2022-07-27T15:29:07.561Z,29.45
2022-07-27T15:31:34.254Z,29.42
2022-07-27T15:34:01.750Z,29.42
2022-07-27T15:36:32.344Z,29.34
2022-07-27T15:39:00.673Z,29.44
2022-07-27T15:41:27.437Z,29.38
2022-07-27T15:43:54.175Z,29.23
2022-07-27T15:46:27.015Z,29.12
2022-07-27T15:48:54.453Z,29.35
2022-07-27T15:51:21.181Z,29.42
2022-07-27T15:53:47.836Z,29.53
2022-07-27T15:56:14.472Z,29.52
2022-07-27T15:58:41.144Z,29.26
2022-07-27T16:01:08.569Z,28.91
2022-07-27T16:03:38.943Z,28.80
2022-07-27T16:06:05.772Z,28.63
2022-07-27T16:08:32.537Z,28.81
2022-07-27T16:10:59.182Z,28.65
2022-07-27T16:13:26.061Z,28.88
2022-07-27T16:16:12.099Z,29.10
2022-07-27T16:18:39.344Z,29.27
2022-07-27T16:21:07.229Z,29.27
2022-07-27T16:23:34.121Z,29.38
2022-07-27T16:26:05.682Z,29.43
2022-07-27T16:28:35.707Z,29.46
2022-07-27T16:31:04.942Z,29.48
2022-07-27T16:33:31.761Z,29.44
2022-07-27T16:35:58.473Z,29.29
2022-07-27T16:38:25.642Z,29.06
2022-07-27T16:40:52.396Z,28.80
2022-07-27T16:43:19.275Z,28.48
2022-07-27T16:45:45.862Z,28.24
2022-07-27T16:48:12.952Z,28.23
2022-07-27T16:50:40.517Z,28.08
2022-07-27T16:53:11.064Z,28.06
2022-07-27T16:55:37.742Z,28.04
2022-07-27T16:58:05.247Z,27.98
2022-07-27T17:00:35.206Z,27.93
2022-07-27T17:03:06.341Z,27.81
2022-07-27T17:05:33.177Z,27.64
2022-07-27T17:07:59.973Z,27.47
2022-07-27T17:10:27.612Z,27.42
2022-07-27T17:12:54.822Z,27.49
2022-07-27T17:15:22.522Z,27.35
2022-07-27T17:17:49.186Z,27.40
2022-07-27T17:20:16.009Z,27.32
2022-07-27T17:22:55.430Z,27.09
2022-07-27T17:25:22.188Z,26.99
2022-07-27T17:27:49.157Z,26.81
2022-07-27T17:30:16.201Z,26.65
2022-07-27T17:32:42.954Z,26.41
2022-07-27T17:35:09.770Z,26.27
2022-07-27T17:38:03.536Z,26.13
2022-07-27T17:40:23.233Z,26.01
2022-07-27T17:42:52.305Z,25.80
2022-07-27T17:45:18.916Z,25.63
2022-07-27T17:47:45.590Z,25.59
2022-07-27T17:50:12.356Z,25.50
2022-07-27T17:52:39.097Z,25.45
2022-07-27T17:55:06.353Z,25.21
2022-07-27T17:57:32.986Z,25.11
2022-07-27T17:59:59.675Z,25.00
2022-07-27T18:02:26.472Z,24.93
2022-07-27T18:04:53.344Z,24.85
2022-07-27T18:07:20.124Z,24.72
2022-07-27T18:09:46.744Z,24.66
2022-07-27T18:12:13.425Z,24.58
2022-07-27T18:15:00.005Z,24.46
2022-07-27T18:17:26.699Z,24.31
2022-07-27T18:19:53.375Z,24.35
2022-07-27T18:22:20.955Z,24.35
2022-07-27T18:24:47.684Z,24.34
2022-07-27T18:27:14.354Z,24.32
2022-07-27T18:29:42.958Z,24.26
2022-07-27T18:32:09.602Z,24.32
2022-07-27T18:34:37.206Z,24.25
2022-07-27T18:37:03.922Z,24.27
2022-07-27T18:39:33.926Z,24.20
2022-07-27T18:42:03.876Z,24.22
2022-07-27T18:44:38.289Z,24.17
2022-07-27T18:47:05.798Z,24.17
2022-07-27T18:49:32.470Z,23.96
2022-07-27T18:51:59.175Z,24.02
2022-07-27T18:54:25.883Z,23.98
2022-07-27T18:56:52.519Z,23.93
2022-07-27T18:59:19.327Z,24.06
2022-07-27T19:01:46.083Z,24.09
2022-07-27T19:04:15.761Z,24.15
2022-07-27T19:06:44.663Z,24.25
2022-07-27T19:09:13.287Z,24.22
2022-07-27T19:11:40.322Z,24.31
2022-07-27T19:14:07.112Z,24.30
2022-07-27T19:16:35.739Z,24.34
2022-07-27T19:19:03.181Z,24.38
2022-07-27T19:21:30.850Z,24.34
2022-07-27T19:23:57.685Z,24.27
2022-07-27T19:26:24.371Z,24.27
2022-07-27T19:28:51.005Z,24.33
2022-07-27T19:31:22.766Z,24.27
2022-07-27T19:33:51.141Z,24.40
2022-07-27T19:36:18.500Z,24.46
2022-07-27T19:38:45.131Z,24.43
2022-07-27T19:41:11.872Z,24.36
2022-07-27T19:43:38.522Z,24.32
2022-07-27T19:46:05.478Z,24.34
2022-07-27T19:51:04.701Z,24.12
2022-07-27T19:53:35.489Z,24.07
2022-07-27T19:56:02.469Z,23.92
2022-07-27T19:58:29.687Z,23.89
2022-07-27T20:00:56.567Z,23.89
2022-07-27T20:03:23.673Z,23.80
2022-07-27T20:05:50.866Z,23.73
2022-07-27T20:08:17.728Z,23.62
2022-07-27T20:10:44.525Z,23.68
2022-07-27T20:13:11.212Z,23.63
2022-07-27T20:15:37.921Z,23.49
2022-07-27T20:18:05.179Z,23.49
2022-07-27T20:20:31.789Z,23.42
2022-07-27T20:22:58.586Z,23.40
2022-07-27T20:25:25.343Z,23.35
2022-07-27T20:27:52.496Z,23.27
2022-07-27T20:30:20.078Z,23.18
2022-07-27T20:32:49.019Z,23.00
2022-07-27T20:35:16.990Z,22.93
2022-07-27T20:37:45.552Z,22.86
2022-07-27T20:40:12.978Z,22.74
2022-07-27T20:42:43.955Z,22.65
2022-07-27T20:45:12.827Z,22.58
2022-07-27T20:47:39.844Z,22.51
2022-07-27T20:50:09.065Z,22.46
2022-07-27T20:52:36.205Z,22.32
2022-07-27T20:55:02.953Z,22.25
2022-07-27T20:57:29.631Z,22.18
2022-07-27T20:59:56.315Z,22.09
2022-07-27T21:02:22.996Z,21.97
2022-07-27T21:04:49.757Z,21.87
2022-07-27T21:07:16.383Z,21.79
2022-07-27T21:09:43.014Z,21.72
2022-07-27T21:12:09.686Z,21.79
2022-07-27T21:14:36.400Z,21.83
2022-07-27T21:17:03.137Z,21.85
2022-07-27T21:19:30.206Z,21.96
2022-07-27T21:21:56.812Z,22.05
2022-07-27T21:24:23.578Z,22.09
2022-07-27T21:26:51.306Z,22.05
2022-07-27T21:29:19.720Z,22.11
2022-07-27T21:31:49.009Z,22.05
2022-07-27T21:34:18.879Z,21.99
2022-07-27T21:36:46.377Z,21.92
2022-07-27T21:39:13.612Z,21.90
2022-07-27T21:41:40.404Z,21.83
2022-07-27T21:44:07.091Z,21.80
2022-07-27T21:46:33.886Z,21.67
2022-07-27T21:49:00.541Z,21.71
2022-07-27T21:51:27.330Z,21.76
2022-07-27T21:53:54.012Z,21.81
2022-07-27T21:56:20.691Z,21.88
2022-07-27T21:58:48.047Z,21.65
2022-07-27T22:01:16.190Z,21.71
2022-07-27T22:03:43.649Z,21.73
2022-07-27T22:06:11.033Z,21.60
2022-07-27T22:08:37.880Z,21.73
2022-07-27T22:11:05.335Z,21.76
2022-07-27T22:13:32.356Z,21.73
2022-07-27T22:15:59.218Z,21.79
2022-07-27T22:18:25.932Z,21.81
2022-07-27T22:20:52.672Z,21.82
2022-07-27T22:23:19.344Z,21.79
2022-07-27T22:25:46.445Z,21.79
2022-07-27T22:28:13.269Z,21.86
2022-07-27T22:30:40.355Z,21.93
2022-07-27T22:33:08.125Z,21.92
2022-07-27T22:35:34.913Z,21.99
2022-07-27T22:38:02.089Z,21.99
2022-07-27T22:40:28.730Z,22.00
2022-07-27T22:42:55.393Z,22.05
2022-07-27T22:45:22.472Z,22.13
2022-07-27T22:47:49.253Z,22.12
2022-07-27T22:50:18.238Z,22.17
2022-07-27T22:52:45.186Z,22.15
2022-07-27T22:55:11.899Z,22.23
2022-07-27T22:57:38.515Z,22.29
2022-07-27T23:00:07.837Z,22.30
2022-07-27T23:02:34.623Z,22.29
2022-07-27T23:05:01.315Z,22.33
2022-07-27T23:07:27.984Z,22.26
2022-07-27T23:09:56.153Z,22.23
2022-07-27T23:12:24.426Z,22.25
2022-07-27T23:14:51.043Z,22.34
2022-07-27T23:17:18.166Z,22.46
2022-07-27T23:19:44.849Z,22.60
2022-07-27T23:22:11.758Z,22.69
2022-07-27T23:24:40.973Z,22.76
2022-07-27T23:27:08.238Z,22.79
2022-07-27T23:29:34.824Z,22.84
2022-07-27T23:32:03.427Z,22.81
2022-07-27T23:34:30.175Z,22.85
2022-07-27T23:36:56.883Z,22.86
2022-07-27T23:39:23.523Z,22.83
2022-07-27T23:41:50.457Z,22.68
2022-07-27T23:44:17.733Z,22.69
2022-07-27T23:46:44.599Z,22.47
2022-07-27T23:49:11.599Z,22.30
2022-07-27T23:51:38.343Z,22.15
2022-07-27T23:54:05.245Z,22.09
2022-07-27T23:56:31.887Z,21.99
2022-07-27T23:58:58.525Z,21.95
